createdAt,value
2019-05-26T02:13:53.850Z,13.59
2019-05-26T02:14:53.839Z,13.48
2019-05-26T02:15:53.827Z,13.50
2019-05-26T02:16:53.870Z,13.46
2019-05-26T02:17:53.804Z,13.50
2019-05-26T02:18:53.793Z,13.48
2019-05-26T02:20:53.777Z,13.44
2019-05-26T02:21:53.761Z,13.42
2019-05-26T02:22:53.746Z,13.46
2019-05-26T02:23:53.732Z,13.45
2019-05-26T02:24:53.721Z,13.45
2019-05-26T02:25:53.712Z,13.45
2019-05-26T02:26:53.700Z,13.45
2019-05-26T02:27:53.690Z,13.46
2019-05-26T02:28:53.679Z,13.45
2019-05-26T02:29:53.665Z,13.45
2019-05-26T02:30:53.667Z,13.50
2019-05-26T02:31:53.641Z,13.54
2019-05-26T02:32:53.632Z,13.52
2019-05-26T02:33:53.624Z,13.56
2019-05-26T02:34:53.612Z,13.41
2019-05-26T02:35:53.602Z,13.44
2019-05-26T02:36:53.587Z,13.46
2019-05-26T02:37:53.573Z,13.42
2019-05-26T02:39:01.991Z,13.44
2019-05-26T02:40:18.033Z,13.45
2019-05-26T02:41:18.025Z,13.41
2019-05-26T02:42:18.012Z,13.38
2019-05-26T02:43:18.006Z,13.42
2019-05-26T02:44:17.986Z,13.34
2019-05-26T02:45:17.974Z,13.27
2019-05-26T02:46:17.971Z,13.37
2019-05-26T02:47:17.951Z,13.38
2019-05-26T02:48:17.939Z,13.26
2019-05-26T02:49:17.935Z,13.30
2019-05-26T02:50:17.926Z,13.37
2019-05-26T02:51:17.915Z,13.34
2019-05-26T02:52:17.895Z,13.35
2019-05-26T02:53:17.883Z,13.39
2019-05-26T02:54:17.876Z,13.37
2019-05-26T02:55:17.862Z,13.34
2019-05-26T02:56:17.859Z,13.35
2019-05-26T02:57:17.860Z,13.42
2019-05-26T02:58:17.898Z,13.32
2019-05-26T02:59:17.818Z,13.41
2019-05-26T03:00:17.814Z,13.41
2019-05-26T03:01:17.801Z,13.27
2019-05-26T03:02:17.782Z,13.34
2019-05-26T03:03:17.769Z,13.26
2019-05-26T03:04:17.760Z,13.32
2019-05-26T03:05:17.748Z,13.38
2019-05-26T03:06:17.737Z,13.23
2019-05-26T03:07:17.733Z,13.38
2019-05-26T03:08:17.727Z,13.39
2019-05-26T03:09:23.137Z,13.35
2019-05-26T03:10:18.729Z,13.37
2019-05-26T03:11:17.682Z,13.37
2019-05-26T03:12:17.681Z,13.35
2019-05-26T03:13:17.659Z,13.41
2019-05-26T03:14:17.649Z,13.45
2019-05-26T03:15:17.636Z,13.45
2019-05-26T03:16:17.629Z,13.42
2019-05-26T03:17:17.612Z,13.42
2019-05-26T03:18:17.603Z,13.45
2019-05-26T03:19:17.589Z,13.42
2019-05-26T03:20:17.607Z,13.44
2019-05-26T03:21:17.567Z,13.48
2019-05-26T03:22:17.555Z,13.42
2019-05-26T03:23:17.550Z,13.39
2019-05-26T03:24:17.530Z,13.32
2019-05-26T03:25:17.534Z,13.21
2019-05-26T03:26:17.508Z,13.21
2019-05-26T03:27:17.511Z,13.05
2019-05-26T03:28:17.497Z,12.91
2019-05-26T03:29:17.475Z,12.98
2019-05-26T03:30:17.468Z,12.87
2019-05-26T03:31:17.455Z,12.80
2019-05-26T03:32:17.445Z,12.76
2019-05-26T03:33:17.429Z,12.66
2019-05-26T03:34:17.449Z,12.58
2019-05-26T03:35:17.412Z,12.63
2019-05-26T03:36:17.393Z,12.53
2019-05-26T03:37:17.384Z,12.63
2019-05-26T03:38:17.371Z,12.53
2019-05-26T03:39:17.358Z,12.68
2019-05-26T03:40:17.348Z,12.68
2019-05-26T03:41:17.383Z,12.69
2019-05-26T03:42:17.330Z,12.66
2019-05-26T03:43:17.314Z,12.57
2019-05-26T03:44:17.326Z,12.57
2019-05-26T03:45:17.291Z,12.73
2019-05-26T03:46:17.453Z,12.79
2019-05-26T03:47:17.392Z,12.80
2019-05-26T03:48:17.259Z,12.93
2019-05-26T03:49:17.245Z,12.90
2019-05-26T03:50:17.237Z,13.05
2019-05-26T03:51:17.235Z,13.16
2019-05-26T03:52:17.229Z,13.20
2019-05-26T03:53:17.200Z,13.20
2019-05-26T03:54:17.190Z,13.23
2019-05-26T03:55:17.177Z,13.20
2019-05-26T03:56:17.165Z,13.01
2019-05-26T03:57:17.155Z,13.06
2019-05-26T03:58:17.149Z,13.06
2019-05-26T03:59:17.144Z,13.02
2019-05-26T04:00:17.120Z,12.93
2019-05-26T04:01:17.109Z,12.88
2019-05-26T04:02:17.110Z,12.80
2019-05-26T04:03:17.223Z,12.80
2019-05-26T04:04:17.075Z,12.72
2019-05-26T04:05:17.070Z,12.73
2019-05-26T04:06:17.056Z,12.76
2019-05-26T04:07:17.044Z,12.73
2019-05-26T04:08:17.034Z,12.80
2019-05-26T04:09:17.022Z,12.83
2019-05-26T04:10:17.012Z,12.90
2019-05-26T04:11:17.000Z,13.02
2019-05-26T04:12:16.992Z,13.05
2019-05-26T04:13:16.975Z,13.06
2019-05-26T04:14:16.961Z,13.13
2019-05-26T04:15:16.953Z,13.27
2019-05-26T04:16:16.945Z,13.41
2019-05-26T04:17:16.929Z,13.41
2019-05-26T04:18:16.916Z,13.37
2019-05-26T04:19:16.907Z,13.37
2019-05-26T04:20:16.905Z,13.50
2019-05-26T04:21:16.888Z,13.37
2019-05-26T04:22:16.872Z,13.26
2019-05-26T04:23:16.859Z,13.26
2019-05-26T04:24:16.851Z,13.34
2019-05-26T04:25:16.859Z,13.42
2019-05-26T04:26:16.831Z,13.45
2019-05-26T04:27:16.818Z,13.46
2019-05-26T04:28:16.805Z,13.41
2019-05-26T04:29:16.793Z,13.54
2019-05-26T04:30:16.790Z,13.53
2019-05-26T04:31:16.773Z,13.38
2019-05-26T04:32:16.768Z,13.27
2019-05-26T04:33:16.750Z,13.20
2019-05-26T04:34:16.738Z,13.17
2019-05-26T04:35:16.728Z,13.05
2019-05-26T04:36:16.717Z,13.05
2019-05-26T04:37:16.710Z,13.14
2019-05-26T04:38:16.693Z,13.19
2019-05-26T04:39:16.683Z,13.30
2019-05-26T04:40:26.587Z,13.50
2019-05-26T04:41:17.680Z,13.48
2019-05-26T04:42:16.669Z,13.46
2019-05-26T04:43:16.650Z,13.42
2019-05-26T04:44:16.625Z,13.27
2019-05-26T04:45:16.614Z,13.29
2019-05-26T04:46:16.605Z,13.30
2019-05-26T04:47:16.592Z,13.35
2019-05-26T04:48:16.582Z,13.41
2019-05-26T04:49:16.577Z,13.38
2019-05-26T04:50:16.578Z,13.45
2019-05-26T04:51:16.561Z,13.50
2019-05-26T04:52:16.538Z,13.54
2019-05-26T04:53:16.525Z,13.53
2019-05-26T04:54:16.519Z,13.53
2019-05-26T04:55:16.507Z,13.66
2019-05-26T04:56:16.498Z,13.53
2019-05-26T04:57:16.482Z,13.60
2019-05-26T04:58:16.472Z,13.66
2019-05-26T04:59:16.463Z,13.75
2019-05-26T05:00:16.452Z,13.78
2019-05-26T05:01:16.437Z,13.74
2019-05-26T05:02:16.424Z,13.87
2019-05-26T05:03:16.433Z,14.03
2019-05-26T05:04:16.408Z,14.33
2019-05-26T05:05:16.396Z,14.44
2019-05-26T05:06:16.382Z,14.49
2019-05-26T05:07:16.389Z,14.61
2019-05-26T05:08:16.360Z,14.88
2019-05-26T05:09:16.349Z,15.10
2019-05-26T05:10:16.336Z,15.18
2019-05-26T05:11:16.331Z,15.18
2019-05-26T05:12:16.322Z,15.31
2019-05-26T05:13:16.303Z,15.25
2019-05-26T05:14:16.294Z,15.40
2019-05-26T05:15:16.283Z,15.48
2019-05-26T05:16:16.272Z,15.62
2019-05-26T05:17:16.266Z,15.63
2019-05-26T05:18:16.258Z,15.52
2019-05-26T05:19:16.236Z,15.63
2019-05-26T05:20:16.231Z,15.81
2019-05-26T05:21:16.219Z,15.87
2019-05-26T05:22:16.202Z,15.72
2019-05-26T05:23:16.192Z,15.63
2019-05-26T05:24:16.189Z,15.63
2019-05-26T05:25:16.169Z,15.63
2019-05-26T05:26:16.159Z,15.66
2019-05-26T05:27:16.151Z,15.87
2019-05-26T05:28:16.142Z,15.93
2019-05-26T05:29:16.130Z,16.35
2019-05-26T05:30:16.124Z,16.56
2019-05-26T05:31:16.102Z,16.91
2019-05-26T05:32:16.090Z,17.22
2019-05-26T05:33:16.094Z,17.07
2019-05-26T05:34:16.074Z,16.90
2019-05-26T05:35:16.057Z,16.75
2019-05-26T05:36:16.048Z,16.78
2019-05-26T05:37:16.450Z,17.04
2019-05-26T05:38:16.027Z,17.20
2019-05-26T05:39:16.013Z,17.25
2019-05-26T05:40:16.004Z,17.46
2019-05-26T05:41:15.996Z,17.47
2019-05-26T05:42:15.981Z,17.43
2019-05-26T05:43:15.972Z,17.24
2019-05-26T05:44:15.961Z,16.83
2019-05-26T05:45:15.952Z,17.16
2019-05-26T05:46:15.936Z,17.17
2019-05-26T05:47:15.928Z,17.04
2019-05-26T05:48:15.949Z,17.17
2019-05-26T05:49:15.904Z,17.27
2019-05-26T05:50:15.896Z,17.43
2019-05-26T05:51:15.886Z,17.50
2019-05-26T05:52:15.874Z,17.56
2019-05-26T05:53:15.861Z,17.47
2019-05-26T05:54:15.855Z,17.25
2019-05-26T05:55:15.846Z,17.19
2019-05-26T05:56:15.831Z,17.16
2019-05-26T05:57:15.822Z,17.12
2019-05-26T05:58:15.809Z,17.38
2019-05-26T05:59:15.803Z,17.41
2019-05-26T06:00:15.790Z,17.47
2019-05-26T06:01:15.774Z,17.86
2019-05-26T06:02:15.762Z,18.29
2019-05-26T06:03:18.591Z,18.75
2019-05-26T06:04:15.740Z,18.89
2019-05-26T06:05:15.731Z,18.49
2019-05-26T06:06:15.717Z,18.14
2019-05-26T06:07:15.712Z,17.93
2019-05-26T06:08:15.694Z,17.77
2019-05-26T06:09:15.690Z,17.71
2019-05-26T06:10:15.678Z,17.65
2019-05-26T06:11:17.293Z,17.64
2019-05-26T06:12:15.656Z,17.72
2019-05-26T06:13:15.641Z,17.93
2019-05-26T06:14:15.627Z,18.14
2019-05-26T06:15:17.153Z,18.29
2019-05-26T06:16:15.605Z,18.49
2019-05-26T06:17:15.601Z,18.46
2019-05-26T06:18:15.590Z,18.49
2019-05-26T06:19:15.599Z,18.29
2019-05-26T06:20:15.599Z,18.57
2019-05-26T06:21:15.561Z,18.64
2019-05-26T06:22:15.543Z,18.70
2019-05-26T06:23:15.547Z,18.78
2019-05-26T06:24:15.558Z,19.06
2019-05-26T06:25:15.552Z,19.43
2019-05-26T06:26:15.495Z,20.02
2019-05-26T06:27:15.483Z,20.41
2019-05-26T06:28:15.471Z,20.52
2019-05-26T06:29:15.460Z,20.18
2019-05-26T06:30:15.446Z,19.97
2019-05-26T06:31:15.442Z,19.90
2019-05-26T06:32:15.799Z,19.92
2019-05-26T06:33:15.421Z,19.93
2019-05-26T06:34:15.408Z,20.29
2019-05-26T06:35:15.397Z,20.67
2019-05-26T06:36:15.382Z,20.47
2019-05-26T06:37:15.377Z,20.15
2019-05-26T06:38:15.362Z,19.89
2019-05-26T06:39:15.349Z,19.81
2019-05-26T06:40:15.338Z,19.92
2019-05-26T06:41:30.421Z,20.60
2019-05-26T06:42:39.795Z,21.34
2019-05-26T06:43:39.785Z,21.90
2019-05-26T06:44:52.996Z,21.81
2019-05-26T06:45:40.812Z,21.93
2019-05-26T06:46:39.752Z,22.21
2019-05-26T06:47:39.783Z,22.61
2019-05-26T06:48:39.728Z,22.85
2019-05-26T06:49:39.723Z,23.43
2019-05-26T06:50:39.707Z,23.97
2019-05-26T06:51:39.710Z,24.31
2019-05-26T06:52:39.689Z,24.70
2019-05-26T06:53:39.675Z,24.99
2019-05-26T06:54:39.665Z,24.55
2019-05-26T06:55:39.651Z,23.47
2019-05-26T06:56:39.637Z,22.45
2019-05-26T06:57:39.635Z,22.05
2019-05-26T06:58:39.615Z,21.99
2019-05-26T06:59:39.608Z,21.63
2019-05-26T07:00:39.595Z,21.58
2019-05-26T07:01:39.588Z,21.30
2019-05-26T07:02:39.571Z,21.35
2019-05-26T07:03:39.561Z,21.56
2019-05-26T07:04:39.548Z,21.47
2019-05-26T07:05:39.547Z,21.51
2019-05-26T07:06:39.533Z,21.22
2019-05-26T07:07:39.519Z,20.92
2019-05-26T07:08:39.517Z,21.06
2019-05-26T07:09:39.496Z,21.41
2019-05-26T07:10:39.487Z,21.58
2019-05-26T07:11:53.987Z,21.81
2019-05-26T07:13:03.951Z,22.83
2019-05-26T07:14:03.930Z,23.58
2019-05-26T07:15:03.927Z,23.99
2019-05-26T07:16:03.918Z,24.04
2019-05-26T07:17:03.905Z,23.48
2019-05-26T07:18:03.886Z,23.47
2019-05-26T07:19:03.878Z,23.62
2019-05-26T07:20:03.866Z,23.73
2019-05-26T07:21:03.854Z,24.25
2019-05-26T07:22:03.845Z,24.89
2019-05-26T07:23:05.379Z,25.49
2019-05-26T07:24:03.821Z,26.05
2019-05-26T07:25:03.810Z,26.52
2019-05-26T07:26:03.799Z,26.57
2019-05-26T07:27:03.787Z,25.67
2019-05-26T07:28:03.777Z,24.29
2019-05-26T07:29:03.773Z,23.81
2019-05-26T07:30:03.752Z,23.48
2019-05-26T07:31:03.744Z,23.03
2019-05-26T07:32:03.731Z,22.73
2019-05-26T07:33:03.733Z,22.71
2019-05-26T07:34:03.706Z,23.07
2019-05-26T07:35:03.696Z,23.59
2019-05-26T07:36:03.693Z,24.21
2019-05-26T07:37:03.676Z,24.47
2019-05-26T07:38:03.672Z,24.81
2019-05-26T07:39:03.654Z,24.13
2019-05-26T07:40:03.647Z,23.28
2019-05-26T07:41:03.628Z,22.70
2019-05-26T07:42:09.975Z,22.52
2019-05-26T07:43:28.388Z,22.43
2019-05-26T07:44:28.072Z,22.35
2019-05-26T07:45:28.056Z,22.39
2019-05-26T07:46:28.050Z,22.21
2019-05-26T07:47:28.034Z,22.39
2019-05-26T07:48:28.025Z,22.21
2019-05-26T07:49:28.012Z,22.33
2019-05-26T07:50:28.008Z,22.24
2019-05-26T07:51:27.990Z,21.92
2019-05-26T07:52:27.979Z,21.92
2019-05-26T07:53:27.971Z,22.15
2019-05-26T07:54:27.958Z,22.12
2019-05-26T07:55:27.950Z,22.05
2019-05-26T07:56:27.945Z,21.96
2019-05-26T07:57:27.921Z,21.85
2019-05-26T07:58:27.913Z,21.80
2019-05-26T07:59:27.906Z,21.85
2019-05-26T08:00:27.889Z,21.89
2019-05-26T08:01:35.573Z,22.35
2019-05-26T08:02:28.888Z,22.64
2019-05-26T08:03:27.855Z,22.71
2019-05-26T08:04:27.848Z,23.10
2019-05-26T08:05:27.934Z,23.62
2019-05-26T08:06:27.820Z,24.06
2019-05-26T08:07:27.811Z,24.45
2019-05-26T08:08:27.802Z,24.78
2019-05-26T08:09:27.791Z,24.80
2019-05-26T08:10:27.777Z,24.62
2019-05-26T08:11:27.775Z,23.55
2019-05-26T08:12:30.597Z,22.83
2019-05-26T08:13:27.743Z,22.64
2019-05-26T08:14:27.739Z,22.64
2019-05-26T08:15:27.720Z,22.61
2019-05-26T08:16:27.720Z,22.55
2019-05-26T08:17:27.705Z,22.54
2019-05-26T08:18:27.687Z,22.62
2019-05-26T08:19:27.673Z,22.62
2019-05-26T08:20:27.665Z,22.39
2019-05-26T08:21:27.657Z,22.52
2019-05-26T08:22:27.641Z,22.86
2019-05-26T08:23:27.630Z,23.15
2019-05-26T08:24:27.619Z,23.33
2019-05-26T08:25:27.606Z,23.54
2019-05-26T08:26:27.598Z,23.47
2019-05-26T08:27:27.590Z,23.08
2019-05-26T08:28:27.579Z,22.61
2019-05-26T08:29:27.561Z,22.36
2019-05-26T08:30:27.552Z,22.67
2019-05-26T08:31:27.537Z,23.10
2019-05-26T08:32:27.530Z,23.63
2019-05-26T08:33:27.515Z,24.37
2019-05-26T08:34:27.509Z,24.96
2019-05-26T08:35:27.494Z,25.45
2019-05-26T08:36:27.480Z,25.71
2019-05-26T08:37:27.472Z,26.18
2019-05-26T08:38:27.461Z,25.64
2019-05-26T08:39:27.452Z,24.84
2019-05-26T08:40:27.439Z,24.08
2019-05-26T08:41:27.426Z,24.13
2019-05-26T08:42:42.059Z,24.16
2019-05-26T08:43:51.885Z,24.16
2019-05-26T08:44:51.876Z,24.23
2019-05-26T08:45:51.863Z,24.06
2019-05-26T08:46:51.854Z,23.68
2019-05-26T08:47:51.855Z,24.06
2019-05-26T08:48:51.831Z,24.34
2019-05-26T08:49:51.823Z,24.73
2019-05-26T08:50:51.810Z,24.90
2019-05-26T08:51:51.800Z,24.89
2019-05-26T08:52:51.787Z,25.05
2019-05-26T08:53:51.777Z,25.42
2019-05-26T08:54:51.770Z,25.64
2019-05-26T08:55:51.759Z,26.05
2019-05-26T08:56:51.742Z,25.82
2019-05-26T08:57:51.733Z,25.33
2019-05-26T08:58:51.721Z,24.52
2019-05-26T08:59:51.709Z,24.38
2019-05-26T09:00:51.709Z,24.10
2019-05-26T09:01:51.695Z,24.19
2019-05-26T09:02:51.677Z,24.03
2019-05-26T09:03:51.663Z,23.97
2019-05-26T09:04:51.657Z,24.26
2019-05-26T09:05:51.641Z,24.36
2019-05-26T09:06:51.636Z,25.05
2019-05-26T09:07:51.621Z,25.92
2019-05-26T09:08:51.613Z,26.90
2019-05-26T09:09:51.602Z,27.49
2019-05-26T09:10:51.587Z,28.19
2019-05-26T09:11:51.578Z,28.77
2019-05-26T09:13:00.804Z,29.14
2019-05-26T09:13:52.576Z,29.30
2019-05-26T09:14:51.547Z,29.74
2019-05-26T09:15:51.533Z,29.87
2019-05-26T09:16:51.523Z,30.11
2019-05-26T09:17:51.521Z,30.35
2019-05-26T09:18:51.502Z,30.59
2019-05-26T09:19:51.490Z,30.64
2019-05-26T09:20:51.483Z,30.47
2019-05-26T09:21:51.473Z,29.81
2019-05-26T09:22:51.469Z,28.31
2019-05-26T09:23:51.452Z,27.23
2019-05-26T09:24:51.443Z,27.23
2019-05-26T09:25:51.431Z,27.00
2019-05-26T09:26:51.418Z,25.90
2019-05-26T09:27:51.409Z,25.51
2019-05-26T09:28:51.401Z,25.30
2019-05-26T09:29:51.383Z,25.46
2019-05-26T09:30:51.371Z,25.52
2019-05-26T09:31:51.361Z,25.71
2019-05-26T09:32:51.362Z,25.67
2019-05-26T09:33:51.346Z,25.51
2019-05-26T09:34:51.331Z,26.01
2019-05-26T09:35:51.317Z,26.52
2019-05-26T09:36:51.306Z,27.19
2019-05-26T09:37:51.301Z,26.86
2019-05-26T09:38:51.308Z,26.74
2019-05-26T09:39:51.287Z,27.15
2019-05-26T09:40:51.277Z,27.40
2019-05-26T09:41:51.275Z,28.02
2019-05-26T09:42:51.280Z,28.65
2019-05-26T09:43:51.284Z,29.26
2019-05-26T09:44:51.229Z,29.65
2019-05-26T09:45:51.228Z,29.81
2019-05-26T09:46:51.232Z,30.08
2019-05-26T09:47:51.258Z,30.13
2019-05-26T09:48:51.237Z,30.02
2019-05-26T09:49:51.176Z,30.07
2019-05-26T09:50:51.154Z,30.37
2019-05-26T09:51:51.149Z,30.70
2019-05-26T09:52:51.139Z,30.58
2019-05-26T09:54:01.226Z,30.84
2019-05-26T09:55:15.589Z,31.17
2019-05-26T09:56:15.579Z,31.44
2019-05-26T09:57:15.565Z,31.70
2019-05-26T09:58:15.554Z,31.94
2019-05-26T09:59:15.544Z,31.89
2019-05-26T10:00:16.327Z,31.98
2019-05-26T10:01:15.528Z,31.81
2019-05-26T10:02:15.511Z,31.20
2019-05-26T10:03:15.502Z,29.33
2019-05-26T10:04:15.489Z,28.00
2019-05-26T10:05:15.485Z,27.15
2019-05-26T10:06:15.468Z,26.70
2019-05-26T10:07:16.108Z,26.94
2019-05-26T10:08:15.449Z,27.59
2019-05-26T10:09:15.436Z,28.43
2019-05-26T10:10:15.426Z,29.09
2019-05-26T10:11:15.413Z,29.46
2019-05-26T10:12:15.414Z,29.84
2019-05-26T10:13:30.603Z,30.08
2019-05-26T10:14:16.402Z,30.42
2019-05-26T10:15:15.371Z,30.76
2019-05-26T10:16:15.373Z,30.72
2019-05-26T10:17:15.354Z,30.50
2019-05-26T10:18:15.347Z,30.64
2019-05-26T10:19:15.333Z,30.63
2019-05-26T10:20:15.318Z,30.47
2019-05-26T10:21:15.311Z,30.69
2019-05-26T10:22:15.292Z,30.59
2019-05-26T10:23:15.288Z,30.55
2019-05-26T10:24:15.275Z,30.67
2019-05-26T10:25:15.260Z,30.85
2019-05-26T10:26:15.250Z,31.01
2019-05-26T10:27:15.237Z,31.17
2019-05-26T10:28:15.229Z,31.11
2019-05-26T10:29:15.216Z,31.06
2019-05-26T10:30:15.206Z,31.17
2019-05-26T10:31:15.195Z,30.13
2019-05-26T10:32:15.192Z,28.49
2019-05-26T10:33:15.172Z,27.26
2019-05-26T10:34:15.170Z,26.93
2019-05-26T10:35:15.152Z,27.10
2019-05-26T10:36:15.139Z,27.53
2019-05-26T10:37:15.138Z,27.92
2019-05-26T10:38:15.117Z,28.16
2019-05-26T10:39:15.108Z,28.32
2019-05-26T10:40:15.105Z,28.66
2019-05-26T10:41:15.093Z,28.50
2019-05-26T10:42:15.077Z,28.64
2019-05-26T10:43:15.067Z,28.84
2019-05-26T10:44:15.056Z,29.18
2019-05-26T10:45:15.043Z,29.62
2019-05-26T10:46:15.034Z,29.77
2019-05-26T10:47:15.021Z,29.81
2019-05-26T10:48:15.009Z,30.05
2019-05-26T10:49:15.000Z,30.22
2019-05-26T10:50:14.989Z,30.33
2019-05-26T10:51:14.981Z,30.18
2019-05-26T10:52:14.966Z,29.99
2019-05-26T10:53:14.958Z,29.78
2019-05-26T10:54:14.944Z,29.76
2019-05-26T10:55:14.937Z,29.74
2019-05-26T10:56:14.923Z,29.99
2019-05-26T10:57:14.912Z,29.95
2019-05-26T10:58:14.901Z,30.20
2019-05-26T10:59:14.889Z,30.59
2019-05-26T11:00:14.880Z,30.69
2019-05-26T11:01:14.868Z,30.57
2019-05-26T11:02:14.873Z,30.63
2019-05-26T11:03:14.848Z,30.45
2019-05-26T11:04:14.837Z,30.32
2019-05-26T11:05:14.832Z,30.03
2019-05-26T11:06:14.812Z,29.99
2019-05-26T11:07:14.807Z,29.87
2019-05-26T11:08:14.795Z,29.51
2019-05-26T11:09:14.779Z,28.91
2019-05-26T11:10:14.773Z,28.81
2019-05-26T11:11:14.759Z,28.93
2019-05-26T11:12:14.762Z,29.30
2019-05-26T11:13:14.738Z,29.28
2019-05-26T11:14:14.728Z,29.45
2019-05-26T11:15:14.716Z,29.80
2019-05-26T11:16:14.705Z,29.87
2019-05-26T11:17:14.698Z,29.95
2019-05-26T11:18:14.683Z,30.13
2019-05-26T11:19:14.676Z,30.20
2019-05-26T11:20:14.660Z,30.22
2019-05-26T11:21:14.649Z,30.20
2019-05-26T11:22:14.638Z,30.45
2019-05-26T11:23:14.631Z,30.87
2019-05-26T11:24:14.617Z,31.11
2019-05-26T11:25:14.617Z,31.00
2019-05-26T11:26:14.595Z,30.89
2019-05-26T11:27:15.119Z,30.61
2019-05-26T11:28:14.575Z,30.37
2019-05-26T11:29:14.563Z,30.32
2019-05-26T11:30:14.591Z,30.33
2019-05-26T11:31:14.548Z,30.36
2019-05-26T11:32:14.537Z,30.54
2019-05-26T11:33:14.519Z,30.92
2019-05-26T11:34:14.549Z,31.01
2019-05-26T11:35:14.498Z,31.11
2019-05-26T11:36:14.485Z,31.26
2019-05-26T11:37:14.487Z,31.24
2019-05-26T11:38:14.469Z,31.44
2019-05-26T11:39:14.454Z,31.59
2019-05-26T11:40:14.442Z,31.32
2019-05-26T11:41:14.434Z,30.96
2019-05-26T11:42:14.659Z,30.58
2019-05-26T11:43:17.011Z,30.50
2019-05-26T11:44:17.851Z,30.98
2019-05-26T11:45:14.391Z,31.41
2019-05-26T11:46:16.539Z,31.57
2019-05-26T11:47:14.373Z,31.83
2019-05-26T11:48:14.365Z,31.85
2019-05-26T11:49:14.354Z,31.66
2019-05-26T11:50:14.351Z,31.63
2019-05-26T11:51:14.327Z,31.59
2019-05-26T11:52:14.317Z,31.34
2019-05-26T11:53:14.308Z,31.32
2019-05-26T11:54:14.298Z,31.20
2019-05-26T11:55:14.294Z,31.00
2019-05-26T11:56:14.277Z,31.00
2019-05-26T11:57:14.263Z,30.92
2019-05-26T11:58:14.252Z,30.76
2019-05-26T11:59:14.247Z,30.84
2019-05-26T12:00:14.348Z,30.88
2019-05-26T12:01:14.219Z,30.89
2019-05-26T12:02:14.210Z,30.82
2019-05-26T12:03:14.197Z,30.63
2019-05-26T12:04:14.205Z,30.55
2019-05-26T12:05:17.539Z,30.50
2019-05-26T12:06:14.164Z,30.42
2019-05-26T12:07:14.156Z,30.37
2019-05-26T12:08:14.142Z,30.22
2019-05-26T12:09:14.147Z,30.18
2019-05-26T12:10:14.616Z,30.00
2019-05-26T12:11:14.110Z,29.96
2019-05-26T12:12:14.100Z,29.95
2019-05-26T12:13:14.089Z,29.99
2019-05-26T12:14:14.079Z,30.15
2019-05-26T12:15:14.100Z,30.02
2019-05-26T12:16:14.055Z,30.11
2019-05-26T12:17:14.049Z,30.07
2019-05-26T12:18:14.048Z,30.02
2019-05-26T12:19:14.022Z,30.17
2019-05-26T12:20:14.017Z,30.26
2019-05-26T12:21:14.002Z,30.30
2019-05-26T12:22:14.009Z,30.28
2019-05-26T12:23:13.980Z,30.29
2019-05-26T12:24:13.974Z,30.30
2019-05-26T12:25:13.976Z,30.22
2019-05-26T12:26:13.947Z,30.20
2019-05-26T12:27:13.936Z,30.03
2019-05-26T12:28:13.933Z,29.91
2019-05-26T12:29:13.919Z,29.93
2019-05-26T12:30:13.904Z,29.77
2019-05-26T12:31:13.897Z,29.95
2019-05-26T12:32:13.890Z,29.95
2019-05-26T12:33:13.922Z,29.92
2019-05-26T12:34:13.865Z,29.81
2019-05-26T12:35:13.854Z,29.70
2019-05-26T12:36:13.845Z,28.57
2019-05-26T12:37:13.830Z,27.40
2019-05-26T12:38:13.821Z,26.93
2019-05-26T12:39:13.810Z,26.55
2019-05-26T12:40:13.808Z,26.55
2019-05-26T12:41:13.788Z,26.75
2019-05-26T12:42:16.892Z,27.12
2019-05-26T12:43:13.772Z,27.52
2019-05-26T12:44:13.755Z,27.84
2019-05-26T12:45:13.743Z,27.78
2019-05-26T12:46:13.734Z,27.41
2019-05-26T12:47:13.724Z,26.81
2019-05-26T12:48:13.721Z,26.79
2019-05-26T12:49:13.706Z,26.98
2019-05-26T12:50:13.700Z,27.26
2019-05-26T12:51:13.680Z,27.60
2019-05-26T12:52:13.683Z,27.87
2019-05-26T12:53:13.668Z,28.09
2019-05-26T12:54:13.648Z,28.40
2019-05-26T12:55:13.640Z,28.50
2019-05-26T12:56:13.671Z,28.50
2019-05-26T12:57:13.614Z,28.68
2019-05-26T12:58:13.625Z,28.80
2019-05-26T12:59:13.601Z,29.05
2019-05-26T13:00:13.585Z,29.11
2019-05-26T13:01:13.576Z,29.18
2019-05-26T13:02:13.565Z,29.26
2019-05-26T13:03:13.553Z,29.28
2019-05-26T13:04:13.546Z,29.38
2019-05-26T13:05:13.530Z,29.42
2019-05-26T13:06:13.523Z,29.49
2019-05-26T13:07:13.519Z,28.94
2019-05-26T13:08:13.504Z,28.94
2019-05-26T13:09:13.490Z,28.93
2019-05-26T13:10:13.475Z,29.08
2019-05-26T13:11:13.468Z,29.03
2019-05-26T13:12:13.456Z,28.23
2019-05-26T13:13:13.449Z,27.40
2019-05-26T13:14:13.445Z,27.00
2019-05-26T13:15:13.428Z,26.66
2019-05-26T13:16:13.410Z,26.51
2019-05-26T13:17:13.402Z,26.26
2019-05-26T13:18:13.393Z,26.23
2019-05-26T13:19:13.378Z,25.95
2019-05-26T13:20:13.369Z,25.85
2019-05-26T13:21:13.359Z,25.77
2019-05-26T13:22:13.347Z,26.08
2019-05-26T13:23:13.342Z,26.40
2019-05-26T13:24:13.338Z,26.77
2019-05-26T13:25:13.318Z,27.12
2019-05-26T13:26:13.303Z,27.32
2019-05-26T13:27:13.294Z,27.54
2019-05-26T13:28:13.281Z,27.69
2019-05-26T13:29:13.278Z,27.79
2019-05-26T13:30:13.288Z,27.99
2019-05-26T13:31:13.251Z,28.09
2019-05-26T13:32:13.239Z,28.19
2019-05-26T13:33:13.233Z,28.28
2019-05-26T13:34:13.219Z,28.34
2019-05-26T13:35:13.208Z,28.00
2019-05-26T13:36:13.195Z,27.96
2019-05-26T13:37:13.185Z,28.00
2019-05-26T13:38:13.184Z,28.05
2019-05-26T13:39:13.171Z,28.11
2019-05-26T13:40:13.155Z,27.75
2019-05-26T13:41:13.149Z,27.13
2019-05-26T13:42:13.148Z,26.60
2019-05-26T13:43:13.121Z,26.50
2019-05-26T13:44:13.113Z,26.42
2019-05-26T13:45:22.489Z,26.74
2019-05-26T13:46:14.106Z,26.90
2019-05-26T13:47:25.394Z,27.16
2019-05-26T13:48:14.086Z,27.34
2019-05-26T13:49:13.074Z,27.53
2019-05-26T13:50:13.047Z,27.74
2019-05-26T13:51:13.037Z,27.90
2019-05-26T13:52:13.039Z,27.90
2019-05-26T13:53:13.018Z,28.04
2019-05-26T13:54:13.001Z,28.12
2019-05-26T13:55:12.995Z,28.16
2019-05-26T13:56:12.985Z,28.35
2019-05-26T13:57:12.972Z,28.52
2019-05-26T13:58:12.960Z,28.53
2019-05-26T13:59:12.946Z,28.59
2019-05-26T14:00:13.000Z,28.65
2019-05-26T14:01:12.926Z,28.66
2019-05-26T14:02:12.937Z,28.57
2019-05-26T14:03:12.943Z,28.56
2019-05-26T14:04:12.892Z,28.61
2019-05-26T14:05:12.879Z,28.52
2019-05-26T14:06:12.870Z,28.53
2019-05-26T14:07:12.863Z,28.44
2019-05-26T14:08:12.850Z,28.34
2019-05-26T14:09:12.837Z,28.06
2019-05-26T14:10:12.827Z,27.94
2019-05-26T14:11:12.816Z,27.93
2019-05-26T14:12:12.804Z,28.02
2019-05-26T14:13:12.796Z,28.02
2019-05-26T14:14:12.786Z,28.04
2019-05-26T14:15:12.779Z,28.14
2019-05-26T14:16:12.765Z,28.23
2019-05-26T14:17:12.752Z,28.24
2019-05-26T14:18:12.739Z,28.24
2019-05-26T14:19:12.727Z,28.19
2019-05-26T14:20:12.715Z,28.14
2019-05-26T14:21:12.704Z,27.99
2019-05-26T14:22:12.693Z,27.90
2019-05-26T14:23:12.687Z,27.84
2019-05-26T14:24:12.672Z,27.78
2019-05-26T14:25:15.619Z,27.65
2019-05-26T14:26:12.658Z,27.54
2019-05-26T14:27:12.639Z,27.42
2019-05-26T14:28:12.628Z,27.42
2019-05-26T14:29:12.620Z,27.44
2019-05-26T14:30:12.607Z,27.54
2019-05-26T14:31:12.600Z,27.54
2019-05-26T14:32:12.588Z,27.56
2019-05-26T14:33:12.577Z,27.60
2019-05-26T14:34:12.569Z,27.62
2019-05-26T14:35:12.551Z,27.71
2019-05-26T14:36:12.539Z,27.79
2019-05-26T14:37:12.532Z,27.89
2019-05-26T14:38:12.520Z,27.90
2019-05-26T14:39:12.505Z,27.77
2019-05-26T14:40:12.498Z,27.79
2019-05-26T14:41:12.483Z,27.71
2019-05-26T14:42:12.477Z,27.69
2019-05-26T14:43:12.462Z,27.72
2019-05-26T14:44:12.451Z,27.79
2019-05-26T14:45:12.443Z,27.90
2019-05-26T14:46:12.432Z,27.94
2019-05-26T14:47:12.418Z,27.94
2019-05-26T14:48:12.414Z,28.04
2019-05-26T14:49:12.395Z,28.04
2019-05-26T14:50:12.386Z,28.04
2019-05-26T14:51:12.373Z,27.94
2019-05-26T14:52:12.370Z,27.96
2019-05-26T14:53:12.356Z,27.90
2019-05-26T14:54:12.353Z,27.77
2019-05-26T14:55:12.334Z,27.71
2019-05-26T14:56:12.331Z,27.67
2019-05-26T14:57:12.335Z,27.59
2019-05-26T14:58:16.039Z,27.60
2019-05-26T14:59:12.292Z,27.63
2019-05-26T15:00:12.284Z,27.57
2019-05-26T15:01:12.285Z,27.59
2019-05-26T15:02:12.293Z,27.60
2019-05-26T15:03:12.292Z,27.57
2019-05-26T15:04:12.233Z,27.63
2019-05-26T15:05:12.218Z,27.72
2019-05-26T15:06:12.209Z,27.75
2019-05-26T15:07:12.203Z,27.84
2019-05-26T15:08:12.188Z,27.78
2019-05-26T15:09:24.723Z,27.78